createdAt,value
2023-01-15T00:00:58.754Z,0.90
2023-01-15T00:01:58.698Z,1.00
2023-01-15T00:02:58.727Z,0.80
2023-01-15T00:03:58.643Z,1.00
2023-01-15T00:04:58.674Z,0.80
2023-01-15T00:05:58.576Z,1.10
2023-01-15T00:06:58.638Z,1.20
2023-01-15T00:07:58.637Z,0.90
2023-01-15T00:08:58.545Z,1.00
2023-01-15T00:09:58.578Z,1.10
2023-01-15T00:10:58.538Z,0.90
2023-01-15T00:11:58.609Z,1.00
2023-01-15T00:12:58.514Z,0.80
2023-01-15T00:13:58.504Z,1.10
2023-01-15T00:14:58.486Z,1.10
2023-01-15T00:15:58.544Z,0.90
2023-01-15T00:16:58.489Z,0.90
2023-01-15T00:17:58.491Z,1.00
2023-01-15T00:18:58.470Z,1.00
2023-01-15T00:19:58.407Z,1.10
2023-01-15T00:20:58.424Z,1.00
2023-01-15T00:21:58.423Z,0.90
2023-01-15T00:22:58.433Z,0.90
2023-01-15T00:23:58.367Z,0.80
2023-01-15T00:24:58.386Z,0.90
2023-01-15T00:25:58.332Z,1.20
2023-01-15T00:26:58.307Z,0.80
2023-01-15T00:27:58.290Z,1.10
2023-01-15T00:28:58.279Z,0.90
2023-01-15T00:29:58.306Z,0.80
2023-01-15T00:30:58.314Z,0.90
2023-01-15T00:31:58.284Z,0.90
2023-01-15T00:32:58.231Z,0.90
2023-01-15T00:33:58.216Z,0.90
2023-01-15T00:34:58.210Z,1.20
2023-01-15T00:35:58.178Z,1.10
2023-01-15T00:36:58.206Z,1.10
2023-01-15T00:37:58.155Z,1.00
2023-01-15T00:38:58.140Z,1.20
2023-01-15T00:39:58.177Z,1.00
2023-01-15T00:40:58.150Z,1.10
2023-01-15T00:41:58.150Z,1.20
2023-01-15T00:42:58.095Z,1.00
2023-01-15T00:43:58.101Z,1.10
2023-01-15T00:44:58.103Z,1.00
2023-01-15T00:45:58.079Z,0.90
2023-01-15T00:46:58.033Z,1.00
2023-01-15T00:47:58.092Z,1.20
2023-01-15T00:48:58.069Z,1.20
2023-01-15T00:49:58.062Z,1.20
2023-01-15T00:50:57.982Z,1.00
2023-01-15T00:51:58.006Z,1.00
2023-01-15T00:52:57.978Z,1.10
2023-01-15T00:53:57.934Z,1.10
2023-01-15T00:54:58.047Z,1.00
2023-01-15T00:55:57.961Z,1.30
2023-01-15T00:56:57.917Z,1.10
2023-01-15T00:57:57.895Z,1.20
2023-01-15T00:58:57.881Z,1.00
2023-01-15T00:59:57.866Z,1.30
2023-01-15T01:00:57.989Z,1.20
2023-01-15T01:01:57.946Z,1.30
2023-01-15T01:02:57.805Z,1.40
2023-01-15T01:03:57.835Z,1.10
2023-01-15T01:04:57.865Z,1.10
2023-01-15T01:05:57.772Z,1.20
2023-01-15T01:06:57.775Z,1.20
2023-01-15T01:07:57.756Z,1.10
2023-01-15T01:08:57.792Z,1.10
2023-01-15T01:09:57.753Z,1.20
2023-01-15T01:10:57.740Z,1.30
2023-01-15T01:11:57.689Z,1.20
2023-01-15T01:12:57.706Z,1.30
2023-01-15T01:13:57.700Z,1.10
2023-01-15T01:14:57.694Z,1.30
2023-01-15T01:15:57.715Z,1.20
2023-01-15T01:16:57.637Z,1.40
2023-01-15T01:17:57.609Z,1.20
2023-01-15T01:18:57.624Z,1.20
2023-01-15T01:19:57.619Z,1.30
2023-01-15T01:20:57.639Z,1.50
2023-01-15T01:21:57.552Z,1.10
2023-01-15T01:22:57.552Z,1.70
2023-01-15T01:23:57.520Z,1.30
2023-01-15T01:24:57.553Z,1.60
2023-01-15T01:25:57.527Z,1.20
2023-01-15T01:26:57.504Z,1.40
2023-01-15T01:27:57.494Z,1.50
2023-01-15T01:28:57.454Z,1.60
2023-01-15T01:29:57.467Z,1.40
2023-01-15T01:30:57.433Z,1.50
2023-01-15T01:31:57.446Z,1.60
2023-01-15T01:32:57.439Z,1.80
2023-01-15T01:33:57.381Z,1.80
2023-01-15T01:34:57.461Z,1.80
2023-01-15T01:35:57.406Z,1.60
2023-01-15T01:36:57.351Z,1.60
2023-01-15T01:37:57.367Z,1.40
2023-01-15T01:38:57.343Z,1.70
2023-01-15T01:39:57.368Z,1.40
2023-01-15T01:40:57.407Z,1.40
2023-01-15T01:41:57.384Z,1.50
2023-01-15T01:42:57.298Z,1.60
2023-01-15T01:43:57.260Z,1.40
2023-01-15T01:44:57.311Z,1.50
2023-01-15T01:45:57.334Z,1.60
2023-01-15T01:46:57.212Z,1.40
2023-01-15T01:47:57.188Z,1.60
2023-01-15T01:48:57.181Z,1.30
2023-01-15T01:49:57.188Z,1.70
2023-01-15T01:50:57.170Z,1.60
2023-01-15T01:51:57.158Z,1.60
2023-01-15T01:52:57.180Z,1.70
2023-01-15T01:53:57.117Z,1.40
2023-01-15T01:54:57.154Z,1.60
2023-01-15T01:55:57.131Z,1.70
2023-01-15T01:56:57.091Z,1.30
2023-01-15T01:58:20.363Z,1.50
2023-01-15T01:58:57.078Z,1.60
2023-01-15T01:59:57.133Z,1.50
2023-01-15T02:00:57.210Z,1.40
2023-01-15T02:01:57.179Z,1.60
2023-01-15T02:02:57.028Z,1.60
2023-01-15T02:03:57.003Z,1.60
2023-01-15T02:04:57.045Z,1.60
2023-01-15T02:05:57.011Z,1.40
2023-01-15T02:06:56.975Z,1.70
2023-01-15T02:07:56.928Z,1.50
2023-01-15T02:08:56.966Z,1.70
2023-01-15T02:09:56.929Z,1.50
2023-01-15T02:10:56.963Z,1.80
2023-01-15T02:11:56.956Z,1.60
2023-01-15T02:12:56.890Z,1.90
2023-01-15T02:13:56.849Z,1.70
2023-01-15T02:14:56.860Z,1.90
2023-01-15T02:15:56.855Z,1.60
2023-01-15T02:16:56.820Z,1.50
2023-01-15T02:17:56.839Z,1.80
2023-01-15T02:18:56.768Z,1.90
2023-01-15T02:19:56.843Z,1.80
2023-01-15T02:20:56.789Z,1.80
2023-01-15T02:21:56.822Z,1.70
2023-01-15T02:22:56.748Z,1.80
2023-01-15T02:23:56.783Z,1.70
2023-01-15T02:24:56.714Z,1.70
2023-01-15T02:25:56.730Z,1.70
2023-01-15T02:26:56.723Z,1.80
2023-01-15T02:27:58.855Z,1.80
2023-01-15T02:28:56.654Z,1.50
2023-01-15T02:29:56.654Z,1.80
2023-01-15T02:30:56.724Z,1.80
2023-01-15T02:31:56.621Z,1.50
2023-01-15T02:32:56.579Z,1.60
2023-01-15T02:33:56.577Z,1.80
2023-01-15T02:34:58.644Z,1.50
2023-01-15T02:35:56.620Z,1.90
2023-01-15T02:36:56.568Z,1.50
2023-01-15T02:37:56.586Z,1.50
2023-01-15T02:38:56.506Z,1.40
2023-01-15T02:39:56.517Z,1.60
2023-01-15T02:40:56.459Z,1.90
2023-01-15T02:41:56.457Z,1.70
2023-01-15T02:42:56.517Z,1.80
2023-01-15T02:43:56.471Z,1.80
2023-01-15T02:44:56.437Z,1.70
2023-01-15T03:00:27.110Z,1.10
2023-01-15T03:01:28.010Z,1.30
2023-01-15T03:02:27.926Z,1.70
2023-01-15T03:03:27.885Z,1.60
2023-01-15T03:04:27.858Z,2.10
2023-01-15T03:05:27.856Z,1.60
2023-01-15T03:06:27.768Z,1.50
2023-01-15T03:07:27.840Z,1.70
2023-01-15T03:08:27.753Z,1.50
2023-01-15T03:09:27.737Z,1.60
2023-01-15T03:10:27.816Z,1.60
2023-01-15T03:11:27.756Z,1.30
2023-01-15T03:12:27.692Z,1.70
2023-01-15T03:13:27.706Z,1.80
2023-01-15T03:14:27.695Z,1.50
2023-01-15T03:15:27.692Z,1.40
2023-01-15T03:16:27.645Z,1.60
2023-01-15T03:17:27.712Z,1.50
2023-01-15T03:18:27.651Z,1.60
2023-01-15T03:19:27.682Z,1.30
2023-01-15T03:20:27.637Z,1.60
2023-01-15T03:21:27.625Z,1.80
2023-01-15T03:22:27.833Z,1.40
2023-01-15T03:23:27.539Z,1.60
2023-01-15T03:24:27.531Z,1.50
2023-01-15T03:25:27.519Z,2.20
2023-01-15T03:26:27.522Z,1.50
2023-01-15T03:27:27.496Z,1.50
2023-01-15T03:28:27.577Z,1.60
2023-01-15T03:29:27.460Z,1.60
2023-01-15T03:30:27.565Z,1.60
2023-01-15T03:31:27.492Z,1.50
2023-01-15T03:32:27.429Z,1.20
2023-01-15T03:33:27.456Z,1.70
2023-01-15T03:34:27.383Z,1.70
2023-01-15T03:35:27.380Z,1.60
2023-01-15T03:36:27.386Z,1.50
2023-01-15T03:37:27.364Z,1.80
2023-01-15T03:38:27.386Z,2.10
2023-01-15T03:39:27.321Z,1.70
2023-01-15T03:40:27.318Z,1.60
2023-01-15T03:41:27.374Z,1.70
2023-01-15T03:42:27.333Z,1.40
2023-01-15T03:43:27.323Z,1.70
2023-01-15T03:44:27.257Z,1.60
2023-01-15T03:45:27.281Z,1.80
2023-01-15T03:46:27.274Z,1.60
2023-01-15T03:47:27.271Z,1.80
2023-01-15T03:48:27.245Z,1.70
2023-01-15T03:49:27.200Z,1.80
2023-01-15T03:50:27.181Z,1.80
2023-01-15T03:51:27.169Z,1.90
2023-01-15T03:52:27.195Z,1.80
2023-01-15T03:53:27.196Z,1.60
2023-01-15T03:54:27.117Z,1.70
2023-01-15T03:55:27.181Z,1.70
2023-01-15T03:56:27.187Z,1.60
2023-01-15T03:57:27.097Z,1.70
2023-01-15T03:58:27.078Z,2.00
2023-01-15T03:59:27.081Z,1.80
2023-01-15T04:00:27.069Z,1.60
2023-01-15T04:01:27.205Z,1.80
2023-01-15T04:02:27.115Z,1.60
2023-01-15T04:03:27.003Z,1.60
2023-01-15T04:04:27.022Z,1.40
2023-01-15T04:05:26.973Z,1.80
2023-01-15T04:06:26.949Z,1.70
2023-01-15T04:07:27.008Z,1.70
2023-01-15T04:08:26.953Z,1.50
2023-01-15T04:09:26.935Z,1.70
2023-01-15T04:10:26.951Z,1.60
2023-01-15T04:11:26.938Z,1.80
2023-01-15T04:12:26.935Z,1.70
2023-01-15T04:13:28.776Z,1.40
2023-01-15T04:14:26.867Z,1.40
2023-01-15T04:15:26.860Z,1.70
2023-01-15T04:16:26.902Z,1.70
2023-01-15T04:17:26.818Z,1.90
2023-01-15T04:18:26.834Z,1.40
2023-01-15T04:19:26.784Z,1.60
2023-01-15T04:20:26.818Z,1.80
2023-01-15T04:21:26.804Z,1.40
2023-01-15T04:22:25.787Z,1.50
2023-01-15T04:23:26.819Z,1.70
2023-01-15T04:24:26.743Z,1.60
2023-01-15T04:25:26.727Z,1.70
2023-01-15T04:26:26.742Z,1.90
2023-01-15T04:27:26.676Z,1.90
2023-01-15T04:28:26.770Z,1.80
2023-01-15T04:29:26.684Z,1.90
2023-01-15T04:30:26.687Z,2.20
2023-01-15T04:31:26.665Z,1.90
2023-01-15T04:32:26.603Z,1.60
2023-01-15T04:33:26.577Z,2.10
2023-01-15T04:34:26.604Z,1.80
2023-01-15T04:35:26.592Z,1.70
2023-01-15T04:36:26.579Z,2.40
2023-01-15T04:37:26.597Z,1.50
2023-01-15T04:38:26.531Z,1.60
2023-01-15T04:39:26.562Z,1.60
2023-01-15T04:40:26.524Z,1.60
2023-01-15T04:41:26.520Z,2.10
2023-01-15T04:42:26.494Z,1.40
2023-01-15T04:43:26.479Z,1.70
2023-01-15T04:44:26.506Z,1.80
2023-01-15T04:45:26.442Z,2.10
2023-01-15T04:46:26.449Z,1.70
2023-01-15T04:47:26.444Z,1.90
2023-01-15T04:48:26.454Z,1.40
2023-01-15T04:49:26.403Z,1.80
2023-01-15T04:50:26.360Z,1.90
2023-01-15T04:51:26.344Z,1.90
2023-01-15T04:52:26.471Z,2.10
2023-01-15T04:53:26.321Z,1.90
2023-01-15T04:54:26.345Z,2.20
2023-01-15T04:55:26.327Z,2.20
2023-01-15T04:56:26.276Z,1.50
2023-01-15T04:57:26.282Z,1.80
2023-01-15T04:58:26.315Z,1.90
2023-01-15T04:59:26.278Z,1.90
2023-01-15T05:00:26.265Z,1.80
2023-01-15T05:01:26.389Z,2.00
2023-01-15T05:02:26.380Z,2.00
2023-01-15T05:03:26.186Z,2.00
2023-01-15T05:04:26.234Z,1.80
2023-01-15T05:05:26.183Z,2.00
2023-01-15T05:06:26.181Z,1.50
2023-01-15T05:07:26.210Z,1.80
2023-01-15T05:08:26.123Z,1.70
2023-01-15T05:09:26.211Z,2.00
2023-01-15T05:10:26.179Z,1.90
2023-01-15T05:11:26.093Z,2.10
2023-01-15T05:12:26.128Z,1.90
2023-01-15T05:13:26.122Z,1.90
2023-01-15T05:14:26.058Z,1.90
2023-01-15T05:15:26.095Z,1.70
2023-01-15T05:16:26.075Z,2.00
2023-01-15T05:17:26.042Z,1.90
2023-01-15T05:18:26.445Z,1.80
2023-01-15T05:19:25.972Z,1.70
2023-01-15T05:20:26.004Z,1.90
2023-01-15T05:21:25.965Z,1.70
2023-01-15T05:22:26.004Z,2.10
2023-01-15T05:23:25.909Z,1.90
2023-01-15T05:24:25.908Z,1.70
2023-01-15T05:25:26.027Z,1.60
2023-01-15T05:26:25.943Z,1.70
2023-01-15T05:27:25.932Z,1.90
2023-01-15T05:28:25.845Z,1.70
2023-01-15T05:29:25.875Z,1.60
2023-01-15T05:30:25.922Z,1.80
2023-01-15T05:31:25.934Z,1.80
2023-01-15T05:32:25.834Z,1.80
2023-01-15T05:33:25.784Z,1.60
2023-01-15T05:34:25.763Z,1.70
2023-01-15T05:35:25.807Z,1.90
2023-01-15T05:36:25.741Z,1.90
2023-01-15T05:37:25.793Z,1.90
2023-01-15T05:38:25.713Z,1.80
2023-01-15T05:39:25.694Z,1.60
2023-01-15T05:40:25.683Z,1.90
2023-01-15T05:41:25.691Z,1.70
2023-01-15T05:42:25.684Z,1.90
2023-01-15T06:01:11.766Z,2.00
2023-01-15T06:02:12.780Z,1.90
2023-01-15T06:03:12.705Z,1.50
2023-01-15T06:04:12.666Z,1.50
2023-01-15T06:05:12.691Z,2.00
2023-01-15T06:06:12.674Z,1.70
2023-01-15T06:07:12.619Z,1.30
2023-01-15T06:08:12.654Z,1.60
2023-01-15T06:09:12.618Z,1.70
2023-01-15T06:10:12.678Z,1.70
2023-01-15T06:11:12.599Z,1.90
2023-01-15T06:12:12.587Z,2.00
2023-01-15T06:13:12.577Z,1.90
2023-01-15T06:14:12.574Z,2.20
2023-01-15T06:15:12.525Z,2.20
2023-01-15T06:16:12.571Z,2.00
2023-01-15T06:17:12.543Z,2.00
2023-01-15T06:18:12.580Z,1.50
2023-01-15T06:19:12.495Z,2.00
2023-01-15T06:20:12.522Z,2.00
2023-01-15T06:21:12.480Z,1.90
2023-01-15T06:22:12.451Z,1.80
2023-01-15T06:23:12.426Z,1.80
2023-01-15T06:24:12.393Z,1.70
2023-01-15T06:25:12.407Z,2.10
2023-01-15T06:26:12.377Z,2.10
2023-01-15T06:27:12.345Z,1.90
2023-01-15T06:28:12.393Z,1.90
2023-01-15T06:29:12.362Z,2.30
2023-01-15T06:31:28.657Z,2.30
2023-01-15T06:32:25.111Z,2.20
2023-01-15T06:33:25.130Z,2.20
2023-01-15T06:34:25.098Z,2.30
2023-01-15T06:35:25.080Z,2.40
2023-01-15T06:36:25.076Z,2.50
2023-01-15T06:37:25.011Z,2.20
2023-01-15T06:38:25.044Z,2.60
2023-01-15T06:39:24.983Z,2.00
2023-01-15T06:40:25.006Z,2.20
2023-01-15T06:41:24.950Z,2.20
2023-01-15T06:42:24.953Z,2.00
2023-01-15T06:43:24.948Z,2.00
2023-01-15T06:44:24.951Z,2.10
2023-01-15T06:45:25.005Z,2.10
2023-01-15T06:46:24.959Z,1.90
2023-01-15T06:47:25.083Z,2.30
2023-01-15T06:48:24.869Z,1.90
2023-01-15T06:49:24.850Z,2.20
2023-01-15T06:50:24.875Z,2.30
2023-01-15T06:51:24.843Z,2.20
2023-01-15T06:52:24.808Z,2.20
2023-01-15T06:53:24.839Z,2.10
2023-01-15T06:54:24.867Z,2.30
2023-01-15T06:55:24.860Z,2.10
2023-01-15T06:56:24.773Z,2.70
2023-01-15T06:57:24.805Z,2.30
2023-01-15T06:58:24.781Z,2.10
2023-01-15T06:59:24.767Z,2.00
2023-01-15T07:00:24.807Z,2.10
2023-01-15T07:01:24.828Z,1.90
2023-01-15T07:02:24.717Z,1.80
2023-01-15T07:03:24.665Z,1.90
2023-01-15T07:04:24.655Z,2.00
2023-01-15T07:05:24.688Z,2.20
2023-01-15T07:06:26.422Z,2.20
2023-01-15T07:07:24.711Z,2.20
2023-01-15T07:08:24.627Z,2.10
2023-01-15T07:09:24.602Z,2.40
2023-01-15T07:10:24.607Z,1.90
2023-01-15T07:11:24.560Z,2.10
2023-01-15T07:12:24.577Z,2.20
2023-01-15T07:13:24.523Z,1.70
2023-01-15T07:14:24.584Z,2.30
2023-01-15T07:15:24.546Z,2.20
2023-01-15T07:16:24.545Z,1.90
2023-01-15T07:17:24.522Z,2.10
2023-01-15T07:18:24.613Z,2.00
2023-01-15T07:19:24.481Z,2.00
2023-01-15T07:20:24.437Z,1.70
2023-01-15T07:21:24.435Z,1.70
2023-01-15T07:22:24.429Z,1.90
2023-01-15T07:23:24.393Z,2.00
2023-01-15T07:24:24.401Z,1.60
2023-01-15T07:25:24.459Z,1.90
2023-01-15T07:26:24.387Z,2.10
2023-01-15T07:27:24.383Z,1.90
2023-01-15T07:28:24.438Z,1.70
2023-01-15T07:29:24.358Z,1.40
2023-01-15T07:30:24.291Z,1.70
2023-01-15T07:31:24.345Z,1.50
2023-01-15T07:32:24.263Z,1.90
2023-01-15T07:33:24.247Z,2.00
2023-01-15T07:34:24.268Z,1.60
2023-01-15T07:35:24.284Z,1.60
2023-01-15T07:36:24.246Z,1.90
2023-01-15T07:37:24.202Z,2.00
2023-01-15T07:38:24.241Z,1.60
2023-01-15T07:39:24.263Z,2.00
2023-01-15T07:40:24.191Z,1.80
2023-01-15T07:41:24.156Z,1.80
2023-01-15T07:42:24.159Z,1.80
2023-01-15T07:43:24.141Z,1.60
2023-01-15T07:44:24.150Z,1.50
2023-01-15T07:45:24.164Z,1.80
2023-01-15T07:46:24.107Z,1.80
2023-01-15T07:47:24.100Z,1.80
2023-01-15T07:48:24.044Z,1.50
2023-01-15T07:49:24.053Z,1.60
2023-01-15T07:50:24.052Z,1.90
2023-01-15T07:51:24.015Z,1.90
2023-01-15T07:52:24.024Z,1.60
2023-01-15T07:53:23.975Z,1.60
2023-01-15T07:54:24.017Z,1.80
2023-01-15T07:55:23.978Z,1.70
2023-01-15T07:56:23.942Z,1.70
2023-01-15T07:57:23.982Z,1.70
2023-01-15T07:58:23.908Z,1.90
2023-01-15T07:59:24.007Z,2.00
2023-01-15T08:00:23.925Z,1.60
2023-01-15T08:01:24.001Z,1.80
2023-01-15T08:02:23.856Z,1.70
2023-01-15T08:03:23.854Z,1.80
2023-01-15T08:04:23.879Z,1.50
2023-01-15T08:05:23.830Z,1.80
2023-01-15T08:06:23.886Z,1.60
2023-01-15T08:07:23.816Z,1.50
2023-01-15T08:08:23.787Z,1.50
2023-01-15T08:09:23.772Z,1.40
2023-01-15T08:10:23.756Z,1.70
2023-01-15T08:11:23.807Z,1.60
2023-01-15T08:12:23.747Z,1.40
2023-01-15T08:13:23.707Z,1.50
2023-01-15T08:14:23.708Z,1.60
2023-01-15T08:15:23.697Z,2.00
2023-01-15T08:17:38.526Z,1.60
2023-01-15T08:18:38.435Z,1.60
2023-01-15T08:19:38.380Z,1.50
2023-01-15T08:20:38.413Z,1.70
2023-01-15T08:21:38.415Z,1.40
2023-01-15T08:22:38.339Z,2.10
2023-01-15T08:23:38.350Z,2.00
2023-01-15T08:24:38.318Z,1.70
2023-01-15T08:25:38.323Z,1.80
2023-01-15T08:26:38.299Z,2.10
2023-01-15T08:27:38.301Z,1.90
2023-01-15T08:28:38.278Z,1.50
2023-01-15T08:29:38.353Z,1.90
2023-01-15T08:30:38.285Z,1.80
2023-01-15T08:31:38.279Z,1.60
2023-01-15T08:32:38.209Z,1.70
2023-01-15T08:33:38.201Z,1.80
2023-01-15T08:34:38.282Z,1.90
2023-01-15T08:35:38.175Z,1.60
2023-01-15T08:36:38.168Z,1.70
2023-01-15T08:37:38.180Z,1.80
2023-01-15T08:38:38.157Z,2.00
2023-01-15T08:39:38.128Z,2.00
2023-01-15T08:40:38.130Z,1.80
2023-01-15T08:41:38.164Z,1.70
2023-01-15T08:42:38.083Z,1.70
2023-01-15T08:43:38.061Z,1.60
2023-01-15T08:44:38.082Z,1.90
2023-01-15T08:45:38.095Z,1.90
2023-01-15T08:46:38.032Z,2.10
2023-01-15T08:47:38.041Z,1.70
2023-01-15T08:48:37.997Z,1.70
2023-01-15T08:49:37.980Z,2.10
2023-01-15T08:50:37.972Z,2.00
2023-01-15T08:51:37.940Z,2.10
2023-01-15T08:52:37.958Z,1.90
2023-01-15T08:53:37.974Z,1.50
2023-01-15T08:54:37.935Z,1.70
2023-01-15T08:55:37.901Z,1.90
2023-01-15T08:56:37.989Z,2.00
2023-01-15T08:57:37.862Z,2.20
2023-01-15T08:58:37.875Z,1.80
2023-01-15T08:59:37.843Z,1.80
2023-01-15T09:00:37.876Z,1.70
2023-01-15T09:01:37.998Z,1.50
2023-01-15T09:02:37.809Z,1.60
2023-01-15T09:03:37.798Z,1.40
2023-01-15T09:04:37.807Z,1.60
2023-01-15T09:05:37.778Z,1.90
2023-01-15T09:06:37.782Z,2.00
2023-01-15T09:07:37.745Z,1.90
2023-01-15T09:08:37.754Z,1.70
2023-01-15T09:09:37.725Z,1.70
2023-01-15T09:10:37.703Z,2.00
2023-01-15T09:11:37.680Z,1.80
2023-01-15T09:12:37.690Z,1.90
2023-01-15T09:13:37.640Z,1.70
2023-01-15T09:14:56.364Z,2.10
2023-01-15T09:15:37.641Z,1.50
2023-01-15T09:16:37.645Z,1.40
2023-01-15T09:17:37.588Z,1.50
2023-01-15T09:18:37.594Z,1.60
2023-01-15T09:19:37.575Z,1.80
2023-01-15T09:20:37.570Z,2.20
2023-01-15T09:21:37.535Z,1.60
2023-01-15T09:22:37.537Z,1.60
2023-01-15T09:23:37.524Z,2.00
2023-01-15T09:24:37.498Z,1.50
2023-01-15T09:25:37.499Z,1.60
2023-01-15T09:26:37.472Z,1.60
2023-01-15T09:27:37.460Z,1.40
2023-01-15T09:28:37.521Z,1.80
2023-01-15T09:29:39.167Z,1.50
2023-01-15T09:30:37.468Z,1.50
2023-01-15T09:31:37.407Z,1.50
2023-01-15T09:32:38.616Z,1.90
2023-01-15T09:33:37.387Z,1.60
2023-01-15T09:34:37.395Z,1.70
2023-01-15T09:35:40.848Z,1.50
2023-01-15T09:36:39.676Z,1.70
2023-01-15T09:37:37.339Z,1.40
2023-01-15T09:38:37.328Z,1.60
2023-01-15T09:39:38.319Z,1.60
2023-01-15T09:40:37.289Z,1.80
2023-01-15T09:43:03.063Z,1.40
2023-01-15T09:44:04.047Z,1.70
2023-01-15T09:45:04.045Z,1.60
2023-01-15T09:46:04.065Z,1.60
2023-01-15T09:47:04.013Z,1.70
2023-01-15T09:48:06.121Z,1.80
2023-01-15T09:49:03.989Z,1.90
2023-01-15T09:50:03.973Z,1.60
2023-01-15T09:51:03.982Z,1.70
2023-01-15T09:52:03.948Z,1.40
2023-01-15T09:53:03.943Z,1.80
2023-01-15T09:54:03.913Z,1.60
2023-01-15T09:55:03.911Z,1.40
2023-01-15T09:56:03.886Z,1.50
2023-01-15T10:00:05.042Z,1.60
2023-01-15T10:01:03.964Z,1.70
2023-01-15T10:02:03.874Z,1.70
2023-01-15T10:03:03.932Z,1.60
2023-01-15T10:04:03.919Z,1.40
2023-01-15T10:05:05.539Z,1.50
2023-01-15T10:06:03.831Z,1.70
2023-01-15T10:07:03.799Z,1.70
2023-01-15T10:08:03.866Z,1.70
2023-01-15T10:09:03.777Z,1.60
2023-01-15T10:10:03.765Z,1.80
2023-01-15T10:11:03.749Z,1.40
2023-01-15T10:12:03.733Z,1.60
2023-01-15T10:13:03.741Z,1.60
2023-01-15T10:14:03.703Z,1.60
2023-01-15T10:15:03.854Z,1.80
2023-01-15T10:16:03.863Z,1.70
2023-01-15T10:17:03.668Z,1.50
2023-01-15T10:18:03.703Z,1.40
2023-01-15T10:19:03.697Z,1.50
2023-01-15T10:20:03.664Z,1.70
2023-01-15T10:21:03.643Z,1.50
2023-01-15T10:22:03.628Z,1.30
2023-01-15T10:23:03.585Z,1.80
2023-01-15T10:24:03.570Z,1.50
2023-01-15T10:25:03.564Z,1.50
2023-01-15T10:26:03.614Z,1.60
2023-01-15T10:27:03.572Z,1.40
2023-01-15T10:28:03.547Z,1.50
2023-01-15T10:29:03.506Z,1.50
2023-01-15T10:30:03.586Z,1.40
2023-01-15T10:31:03.540Z,1.40
2023-01-15T10:32:03.531Z,1.50
2023-01-15T10:33:03.702Z,1.60
2023-01-15T10:34:03.520Z,1.40
2023-01-15T10:35:03.446Z,1.70
2023-01-15T10:36:03.450Z,1.50
2023-01-15T10:37:03.480Z,1.40
2023-01-15T10:38:03.382Z,1.60
2023-01-15T10:39:03.359Z,1.20
2023-01-15T10:40:03.393Z,1.40
2023-01-15T10:41:03.470Z,1.60
2023-01-15T10:42:03.353Z,1.40
2023-01-15T10:43:03.321Z,1.40
2023-01-15T10:44:04.493Z,1.40
2023-01-15T10:45:03.288Z,1.50
2023-01-15T10:46:03.320Z,1.60
2023-01-15T10:47:06.623Z,1.50
2023-01-15T10:48:03.307Z,1.20
2023-01-15T10:49:03.335Z,1.40
2023-01-15T10:50:03.221Z,1.30
2023-01-15T10:51:03.248Z,1.40
2023-01-15T11:00:32.427Z,1.30
2023-01-15T11:01:31.402Z,1.50
2023-01-15T11:02:31.359Z,1.70
2023-01-15T11:03:31.167Z,1.40
2023-01-15T11:04:31.156Z,1.40
2023-01-15T11:05:31.187Z,1.20
2023-01-15T11:06:31.140Z,1.50
2023-01-15T11:07:31.126Z,1.20
2023-01-15T11:09:31.118Z,1.40
2023-01-15T11:10:31.084Z,1.20
2023-01-15T11:11:31.086Z,1.60
2023-01-15T11:12:31.052Z,1.70
2023-01-15T11:13:31.042Z,1.30
2023-01-15T11:14:31.032Z,1.50
2023-01-15T11:15:31.075Z,1.00
2023-01-15T11:16:31.070Z,1.60
2023-01-15T11:17:31.108Z,1.30
2023-01-15T11:18:30.954Z,1.50
2023-01-15T11:19:32.116Z,1.60
2023-01-15T11:20:30.973Z,1.90
2023-01-15T11:21:30.926Z,1.80
2023-01-15T11:22:30.926Z,1.70
2023-01-15T11:23:30.891Z,1.30
2023-01-15T11:24:30.880Z,1.70
2023-01-15T11:25:30.875Z,1.60
2023-01-15T11:26:30.892Z,1.70
2023-01-15T11:27:30.877Z,1.30
2023-01-15T11:28:30.847Z,1.60
2023-01-15T11:29:30.824Z,2.00
2023-01-15T11:30:30.799Z,1.40
2023-01-15T11:31:30.845Z,1.20
2023-01-15T11:32:30.802Z,1.60
2023-01-15T11:33:30.762Z,1.80
2023-01-15T11:34:30.811Z,1.70
2023-01-15T11:35:30.747Z,1.40
2023-01-15T11:36:31.081Z,2.10
2023-01-15T11:37:30.774Z,1.50
2023-01-15T11:38:30.730Z,1.40
2023-01-15T11:40:57.573Z,1.60
2023-01-15T11:41:43.974Z,1.70
2023-01-15T11:42:43.994Z,1.40
2023-01-15T11:43:43.952Z,1.50
2023-01-15T11:44:43.943Z,1.40
2023-01-15T11:45:43.919Z,1.40
2023-01-15T11:46:43.936Z,1.60
2023-01-15T11:47:45.016Z,1.70
2023-01-15T11:48:43.878Z,1.50
2023-01-15T11:49:43.866Z,1.80
2023-01-15T11:50:45.119Z,1.60
2023-01-15T11:51:43.901Z,1.60
2023-01-15T11:52:48.874Z,1.40
2023-01-15T11:53:43.820Z,1.40
2023-01-15T11:54:43.795Z,1.30
2023-01-15T11:55:43.804Z,1.40
2023-01-15T11:56:45.984Z,1.50
2023-01-15T11:57:43.764Z,1.30
2023-01-15T11:58:43.736Z,1.30
2023-01-15T11:59:43.745Z,1.40
2023-01-15T12:00:43.731Z,1.50
2023-01-15T12:01:43.699Z,1.50
2023-01-15T12:02:43.702Z,1.40
2023-01-15T12:03:43.816Z,1.50
2023-01-15T12:04:45.418Z,1.50
2023-01-15T12:05:43.652Z,1.30
2023-01-15T12:06:43.633Z,1.40
2023-01-15T12:07:43.625Z,1.50
2023-01-15T12:08:43.602Z,1.40
2023-01-15T12:09:43.608Z,1.90
2023-01-15T12:10:43.584Z,1.60
2023-01-15T12:11:43.585Z,1.50
2023-01-15T12:12:43.561Z,1.80
2023-01-15T12:13:43.535Z,1.40
2023-01-15T12:14:43.536Z,1.60
2023-01-15T12:15:43.521Z,1.50
2023-01-15T12:16:43.512Z,1.40
2023-01-15T12:17:43.524Z,1.30
2023-01-15T12:18:43.487Z,1.50
2023-01-15T12:19:43.481Z,1.30
2023-01-15T12:20:43.457Z,1.60
2023-01-15T12:21:43.442Z,1.50
2023-01-15T12:22:43.425Z,1.50
2023-01-15T12:23:43.412Z,1.20
2023-01-15T12:24:43.397Z,1.40
2023-01-15T12:25:43.412Z,1.40
2023-01-15T12:26:43.379Z,1.60
2023-01-15T12:27:43.361Z,1.60
2023-01-15T12:28:43.360Z,1.60
2023-01-15T12:29:43.353Z,1.70
2023-01-15T12:30:43.343Z,2.40
2023-01-15T12:31:43.366Z,1.10
2023-01-15T12:32:43.310Z,1.30
2023-01-15T12:33:43.284Z,1.60
2023-01-15T12:34:43.278Z,1.40
2023-01-15T12:35:43.250Z,1.60
2023-01-15T12:36:43.286Z,1.40
2023-01-15T12:37:43.263Z,1.30
2023-01-15T12:38:43.225Z,1.40
2023-01-15T12:39:43.183Z,1.80
2023-01-15T12:40:43.183Z,1.30
2023-01-15T12:41:43.171Z,1.40
2023-01-15T12:42:43.155Z,1.70
2023-01-15T12:43:43.161Z,1.70
2023-01-15T12:44:43.121Z,1.80
2023-01-15T12:45:43.274Z,1.40
2023-01-15T12:46:43.201Z,1.70
2023-01-15T12:47:43.117Z,1.80
2023-01-15T12:48:43.091Z,1.60
2023-01-15T12:49:43.054Z,1.20
2023-01-15T12:51:05.230Z,1.50
2023-01-15T12:51:43.032Z,1.10
2023-01-15T12:52:43.034Z,1.60
2023-01-15T12:54:04.389Z,1.40
2023-01-15T12:54:42.983Z,1.30
2023-01-15T12:55:42.989Z,1.90
2023-01-15T12:57:03.971Z,1.60
2023-01-15T12:57:42.942Z,1.30
2023-01-15T12:58:42.966Z,1.10
2023-01-15T12:59:42.917Z,1.50
2023-01-15T13:00:42.965Z,1.30
2023-01-15T13:01:43.001Z,1.60
2023-01-15T13:02:42.881Z,2.00
2023-01-15T13:03:42.885Z,1.90
2023-01-15T13:04:42.856Z,1.70
2023-01-15T13:05:42.856Z,1.20
2023-01-15T13:06:45.080Z,1.40
2023-01-15T13:07:42.812Z,1.70
2023-01-15T13:08:42.810Z,1.70
2023-01-15T13:09:42.873Z,1.70
2023-01-15T13:10:42.778Z,1.70
2023-01-15T13:11:42.745Z,1.30
2023-01-15T13:16:30.047Z,1.30
2023-01-15T13:17:25.446Z,1.40
2023-01-15T13:18:25.439Z,1.80
2023-01-15T13:20:37.156Z,1.00
2023-01-15T13:21:38.133Z,1.10
2023-01-15T13:22:38.143Z,1.40
2023-01-15T13:23:38.122Z,1.70
2023-01-15T13:24:38.114Z,1.30
2023-01-15T13:25:38.074Z,1.30
2023-01-15T13:26:38.083Z,1.60
2023-01-15T13:27:38.063Z,1.20
2023-01-15T13:28:38.055Z,1.20
2023-01-15T13:29:38.077Z,1.40
2023-01-15T13:30:38.026Z,1.20
2023-01-15T13:31:37.997Z,1.60
2023-01-15T13:32:38.000Z,1.30
2023-01-15T13:33:37.980Z,1.20
2023-01-15T13:34:37.960Z,1.50
2023-01-15T13:35:37.977Z,1.30
2023-01-15T13:36:37.950Z,1.10
2023-01-15T13:37:37.949Z,1.30
2023-01-15T13:38:37.919Z,1.40
2023-01-15T13:39:37.885Z,1.20
2023-01-15T13:40:37.883Z,1.00
2023-01-15T13:41:37.862Z,1.40
2023-01-15T13:42:38.034Z,1.20
2023-01-15T13:43:37.841Z,1.20
2023-01-15T13:44:37.837Z,1.30
2023-01-15T13:45:37.867Z,1.10
2023-01-15T13:46:37.794Z,1.20
2023-01-15T13:47:37.787Z,1.20
2023-01-15T13:48:37.796Z,1.30
2023-01-15T13:49:37.766Z,1.20
2023-01-15T13:50:37.763Z,1.20
2023-01-15T13:51:37.738Z,1.30
2023-01-15T13:52:37.725Z,1.20
2023-01-15T13:53:37.727Z,1.10
2023-01-15T13:54:37.704Z,1.10
2023-01-15T13:55:37.711Z,1.30
2023-01-15T13:56:37.677Z,1.40
2023-01-15T13:57:37.678Z,1.40
2023-01-15T13:58:37.638Z,1.50
2023-01-15T13:59:37.638Z,1.10
2023-01-15T14:00:37.638Z,1.20
2023-01-15T14:01:37.755Z,1.30
2023-01-15T14:02:37.670Z,1.40
2023-01-15T14:03:37.586Z,1.40
2023-01-15T14:04:37.612Z,1.30
2023-01-15T14:05:37.575Z,1.20
2023-01-15T14:06:37.554Z,1.60
2023-01-15T14:07:37.531Z,1.10
2023-01-15T14:08:37.500Z,1.10
2023-01-15T14:09:37.516Z,1.50
2023-01-15T14:10:37.506Z,1.30
2023-01-15T14:11:37.473Z,1.40
2023-01-15T14:12:37.460Z,1.30
2023-01-15T14:13:37.438Z,1.20